Terminal Aerodrome Forecast
Issued by NWS

Home | Current Version | Previous Version | Text Only | Print | Product List | Glossary On
Versions: 1 2 3 4 5 6 7 8 9 10 11 12 13 14
000
FTUS45 KABQ 202324
TAFROW
TAF
KROW 202324Z 2100/2124 25013KT P6SM SCT080
     FM210100 25009KT P6SM FEW070
     FM210800 04014KT P6SM BKN035
      TEMPO 2112/2116 OVC020
     FM211800 03008KT P6SM BKN040=

USA.gov is the U.S. government's official web portal to all federal, state and local government web resources and services.